sensor_id;sensor_type;location;lat;lon;timestamp;pressure;altitude;pressure_sealevel;temperature;humidity
14790;BME280;7486;51.010;10.366;2023-02-26T00:01:13;97957.63;;;-4.71;79.48
14790;BME280;7486;51.010;10.366;2023-02-26T00:03:40;97905.75;;;-4.90;77.29
14790;BME280;7486;51.010;10.366;2023-02-26T00:06:07;97963.47;;;-5.02;77.77
14790;BME280;7486;51.010;10.366;2023-02-26T00:08:34;97958.06;;;-4.99;78.58
14790;BME280;7486;51.010;10.366;2023-02-26T00:11:01;97878.69;;;-5.41;78.56
14790;BME280;7486;51.010;10.366;2023-02-26T00:13:28;97971.97;;;-4.78;77.79
14790;BME280;7486;51.010;10.366;2023-02-26T00:15:58;97964.69;;;-4.62;76.67
14790;BME280;7486;51.010;10.366;2023-02-26T00:18:27;97973.84;;;-4.80;77.25
14790;BME280;7486;51.010;10.366;2023-02-26T00:20:54;97976.19;;;-4.77;77.20
14790;BME280;7486;51.010;10.366;2023-02-26T00:23:21;97941.53;;;-4.74;76.84
14790;BME280;7486;51.010;10.366;2023-02-26T00:25:48;97975.97;;;-4.52;75.87
14790;BME280;7486;51.010;10.366;2023-02-26T00:28:15;97979.72;;;-4.67;75.91
14790;BME280;7486;51.010;10.366;2023-02-26T00:30:41;97984.63;;;-4.97;76.38
14790;BME280;7486;51.010;10.366;2023-02-26T00:33:09;97951.59;;;-5.51;78.28
14790;BME280;7486;51.010;10.366;2023-02-26T00:35:36;97927.16;;;-5.69;78.79
14790;BME280;7486;51.010;10.366;2023-02-26T00:38:11;98006.81;;;-5.29;78.78
14790;BME280;7486;51.010;10.366;2023-02-26T00:40:46;98007.41;;;-5.61;82.92
14790;BME280;7486;51.010;10.366;2023-02-26T00:45:50;97994.38;;;-6.19;85.85
14790;BME280;7486;51.010;10.366;2023-02-26T00:51:26;97997.50;;;-5.90;84.29
14790;BME280;7486;51.010;10.366;2023-02-26T00:54:09;98002.59;;;-6.02;84.07
14790;BME280;7486;51.010;10.366;2023-02-26T00:56:38;98004.50;;;-5.80;83.39
14790;BME280;7486;51.010;10.366;2023-02-26T00:59:05;97988.25;;;-5.93;83.09
14790;BME280;7486;51.010;10.366;2023-02-26T01:01:31;97994.66;;;-5.75;82.88
14790;BME280;7486;51.010;10.366;2023-02-26T01:03:58;97999.50;;;-5.70;82.16
14790;BME280;7486;51.010;10.366;2023-02-26T01:06:33;97985.06;;;-5.73;81.95
14790;BME280;7486;51.010;10.366;2023-02-26T01:09:14;98003.59;;;-5.68;82.04
14790;BME280;7486;51.010;10.366;2023-02-26T01:11:43;98011.47;;;-5.69;82.25
14790;BME280;7486;51.010;10.366;2023-02-26T01:14:09;98011.97;;;-5.29;81.87
14790;BME280;7486;51.010;10.366;2023-02-26T01:16:47;97997.19;;;-5.62;82.32
14790;BME280;7486;51.010;10.366;2023-02-26T01:19:42;98005.03;;;-5.64;83.64
14790;BME280;7486;51.010;10.366;2023-02-26T01:25:00;98006.94;;;-5.55;82.25
14790;BME280;7486;51.010;10.366;2023-02-26T01:27:28;98002.00;;;-5.58;81.86
14790;BME280;7486;51.010;10.366;2023-02-26T01:29:55;98012.56;;;-5.61;80.46
14790;BME280;7486;51.010;10.366;2023-02-26T01:32:50;98010.50;;;-5.44;79.02
14790;BME280;7486;51.010;10.366;2023-02-26T01:48:51;98010.84;;;-5.49;78.04
14790;BME280;7486;51.010;10.366;2023-02-26T01:51:49;98031.22;;;-5.33;77.53
14790;BME280;7486;51.010;10.366;2023-02-26T01:54:22;97945.19;;;-5.92;78.17
14790;BME280;7486;51.010;10.366;2023-02-26T01:56:58;98025.31;;;-5.12;77.08
14790;BME280;7486;51.010;10.366;2023-02-26T01:59:26;97990.00;;;-5.46;76.10
14790;BME280;7486;51.010;10.366;2023-02-26T02:01:54;98036.13;;;-5.41;76.78
14790;BME280;7486;51.010;10.366;2023-02-26T02:04:22;98038.56;;;-5.64;78.05
14790;BME280;7486;51.010;10.366;2023-02-26T02:06:50;98041.91;;;-5.74;78.41
14790;BME280;7486;51.010;10.366;2023-02-26T02:09:17;98028.47;;;-5.67;78.52
14790;BME280;7486;51.010;10.366;2023-02-26T02:15:03;98037.13;;;-5.68;78.87
14790;BME280;7486;51.010;10.366;2023-02-26T02:17:50;98044.19;;;-5.70;79.10
14790;BME280;7486;51.010;10.366;2023-02-26T02:31:34;98037.25;;;-4.87;76.99
14790;BME280;7486;51.010;10.366;2023-02-26T02:34:11;98039.94;;;-5.47;77.57
14790;BME280;7486;51.010;10.366;2023-02-26T02:36:44;98066.09;;;-5.28;77.79
14790;BME280;7486;51.010;10.366;2023-02-26T02:39:18;98028.56;;;-5.44;78.29
14790;BME280;7486;51.010;10.366;2023-02-26T02:41:50;98052.41;;;-5.17;77.92
14790;BME280;7486;51.010;10.366;2023-02-26T02:44:21;98056.81;;;-4.95;77.31
14790;BME280;7486;51.010;10.366;2023-02-26T02:46:52;98058.88;;;-4.66;76.57
14790;BME280;7486;51.010;10.366;2023-02-26T02:49:30;98066.13;;;-4.82;76.16
14790;BME280;7486;51.010;10.366;2023-02-26T02:52:07;98075.84;;;-4.85;75.99
14790;BME280;7486;51.010;10.366;2023-02-26T02:55:06;98082.72;;;-5.08;76.65
14790;BME280;7486;51.010;10.366;2023-02-26T02:57:38;98048.19;;;-5.42;76.99
14790;BME280;7486;51.010;10.366;2023-02-26T03:00:09;98085.75;;;-5.14;77.04
14790;BME280;7486;51.010;10.366;2023-02-26T03:05:24;98092.69;;;-5.51;78.15
14790;BME280;7486;51.010;10.366;2023-02-26T03:08:02;98095.91;;;-5.47;77.43
14790;BME280;7486;51.010;10.366;2023-02-26T03:10:30;98097.44;;;-5.45;77.85
14790;BME280;7486;51.010;10.366;2023-02-26T03:12:57;98102.50;;;-5.43;77.36
14790;BME280;7486;51.010;10.366;2023-02-26T03:15:38;98099.22;;;-5.45;77.77
14790;BME280;7486;51.010;10.366;2023-02-26T03:21:04;98014.72;;;-6.27;78.40
14790;BME280;7486;51.010;10.366;2023-02-26T03:24:19;98104.13;;;-5.66;78.70
14790;BME280;7486;51.010;10.366;2023-02-26T03:26:59;98095.81;;;-5.82;78.06
14790;BME280;7486;51.010;10.366;2023-02-26T03:29:48;98118.47;;;-5.62;78.34
14790;BME280;7486;51.010;10.366;2023-02-26T03:32:22;98007.66;;;-6.49;78.42
14790;BME280;7486;51.010;10.366;2023-02-26T03:37:32;98120.69;;;-5.94;79.15
14790;BME280;7486;51.010;10.366;2023-02-26T03:40:05;98119.53;;;-5.90;79.45
14790;BME280;7486;51.010;10.366;2023-02-26T03:42:42;98126.13;;;-5.73;79.17
14790;BME280;7486;51.010;10.366;2023-02-26T03:45:20;98055.53;;;-6.21;79.19
14790;BME280;7486;51.010;10.366;2023-02-26T03:47:50;98132.22;;;-5.87;79.86
14790;BME280;7486;51.010;10.366;2023-02-26T03:50:31;98128.31;;;-5.80;79.54
14790;BME280;7486;51.010;10.366;2023-02-26T03:53:24;98136.78;;;-6.03;80.07
14790;BME280;7486;51.010;10.366;2023-02-26T03:56:10;98145.75;;;-6.09;79.59
14790;BME280;7486;51.010;10.366;2023-02-26T03:59:08;98147.38;;;-5.70;78.69
14790;BME280;7486;51.010;10.366;2023-02-26T04:01:57;98073.00;;;-5.88;76.94
14790;BME280;7486;51.010;10.366;2023-02-26T04:04:31;98154.00;;;-5.42;76.73
14790;BME280;7486;51.010;10.366;2023-02-26T04:07:00;98120.00;;;-5.60;75.83
14790;BME280;7486;51.010;10.366;2023-02-26T04:09:28;98162.19;;;-5.61;76.85
14790;BME280;7486;51.010;10.366;2023-02-26T04:11:56;98168.50;;;-5.65;76.93
14790;BME280;7486;51.010;10.366;2023-02-26T04:14:23;98176.84;;;-5.48;76.75
14790;BME280;7486;51.010;10.366;2023-02-26T04:16:52;98178.25;;;-5.44;76.38
14790;BME280;7486;51.010;10.366;2023-02-26T04:19:19;98172.31;;;-5.58;76.61
14790;BME280;7486;51.010;10.366;2023-02-26T04:21:46;98178.06;;;-5.41;75.70
14790;BME280;7486;51.010;10.366;2023-02-26T04:24:14;98181.69;;;-5.57;76.19
14790;BME280;7486;51.010;10.366;2023-02-26T04:26:42;98182.44;;;-5.67;77.62
14790;BME280;7486;51.010;10.366;2023-02-26T04:29:09;98184.03;;;-5.28;76.18
14790;BME280;7486;51.010;10.366;2023-02-26T04:31:37;98193.38;;;-5.15;75.69
14790;BME280;7486;51.010;10.366;2023-02-26T04:34:04;98188.97;;;-5.02;75.20
14790;BME280;7486;51.010;10.366;2023-02-26T04:36:31;98193.00;;;-4.74;73.72
14790;BME280;7486;51.010;10.366;2023-02-26T04:38:57;98196.44;;;-4.86;73.54
14790;BME280;7486;51.010;10.366;2023-02-26T04:41:24;98179.53;;;-4.90;73.86
14790;BME280;7486;51.010;10.366;2023-02-26T04:43:51;98208.44;;;-5.09;73.60
14790;BME280;7486;51.010;10.366;2023-02-26T04:46:22;98210.84;;;-5.18;75.50
14790;BME280;7486;51.010;10.366;2023-02-26T04:48:50;98208.75;;;-5.13;74.97
14790;BME280;7486;51.010;10.366;2023-02-26T04:51:19;98212.97;;;-5.48;76.73
14790;BME280;7486;51.010;10.366;2023-02-26T04:53:45;98217.50;;;-5.03;75.93
14790;BME280;7486;51.010;10.366;2023-02-26T04:56:12;98205.31;;;-5.01;75.35
14790;BME280;7486;51.010;10.366;2023-02-26T04:58:39;98221.50;;;-4.99;75.77
14790;BME280;7486;51.010;10.366;2023-02-26T05:01:12;98217.97;;;-5.22;76.63
14790;BME280;7486;51.010;10.366;2023-02-26T05:03:39;98228.16;;;-5.57;78.93
14790;BME280;7486;51.010;10.366;2023-02-26T05:06:06;98230.53;;;-5.54;79.69
14790;BME280;7486;51.010;10.366;2023-02-26T05:08:33;98194.22;;;-5.63;79.97
14790;BME280;7486;51.010;10.366;2023-02-26T05:10:59;98183.59;;;-5.84;80.95
14790;BME280;7486;51.010;10.366;2023-02-26T05:13:26;98243.44;;;-5.66;81.39
14790;BME280;7486;51.010;10.366;2023-02-26T05:15:53;98238.09;;;-5.76;80.57
14790;BME280;7486;51.010;10.366;2023-02-26T05:18:20;98241.88;;;-5.81;80.83
14790;BME280;7486;51.010;10.366;2023-02-26T05:20:54;98247.47;;;-6.00;80.47
14790;BME280;7486;51.010;10.366;2023-02-26T05:23:21;98252.81;;;-5.90;79.89
14790;BME280;7486;51.010;10.366;2023-02-26T05:25:48;98253.03;;;-5.93;80.22
14790;BME280;7486;51.010;10.366;2023-02-26T05:28:16;98250.97;;;-5.76;79.39
14790;BME280;7486;51.010;10.366;2023-02-26T05:30:43;98259.94;;;-5.56;78.51
14790;BME280;7486;51.010;10.366;2023-02-26T05:33:10;98260.94;;;-5.33;76.96
14790;BME280;7486;51.010;10.366;2023-02-26T05:35:36;98268.72;;;-5.46;77.58
14790;BME280;7486;51.010;10.366;2023-02-26T05:38:03;98253.25;;;-5.59;76.07
14790;BME280;7486;51.010;10.366;2023-02-26T05:40:30;98271.38;;;-5.47;76.91
14790;BME280;7486;51.010;10.366;2023-02-26T05:42:56;98280.88;;;-5.61;76.47
14790;BME280;7486;51.010;10.366;2023-02-26T05:45:23;98278.19;;;-5.34;76.01
14790;BME280;7486;51.010;10.366;2023-02-26T05:47:50;98270.94;;;-5.16;74.95
14790;BME280;7486;51.010;10.366;2023-02-26T05:50:16;98285.94;;;-5.34;75.29
14790;BME280;7486;51.010;10.366;2023-02-26T05:52:43;98293.69;;;-5.21;75.19
14790;BME280;7486;51.010;10.366;2023-02-26T05:55:10;98303.66;;;-5.17;74.42
14790;BME280;7486;51.010;10.366;2023-02-26T05:57:37;98298.34;;;-5.39;74.99
14790;BME280;7486;51.010;10.366;2023-02-26T06:00:05;98288.41;;;-5.58;75.33
14790;BME280;7486;51.010;10.366;2023-02-26T06:02:38;98325.25;;;-5.05;73.70
14790;BME280;7486;51.010;10.366;2023-02-26T06:05:05;98318.03;;;-5.00;72.79
14790;BME280;7486;51.010;10.366;2023-02-26T06:07:32;98294.81;;;-5.25;73.20
14790;BME280;7486;51.010;10.366;2023-02-26T06:09:59;98321.75;;;-5.04;72.47
14790;BME280;7486;51.010;10.366;2023-02-26T06:12:25;98297.50;;;-5.14;71.66
14790;BME280;7486;51.010;10.366;2023-02-26T06:14:52;98352.53;;;-5.01;71.85
14790;BME280;7486;51.010;10.366;2023-02-26T06:17:18;98310.41;;;-5.27;72.29
14790;BME280;7486;51.010;10.366;2023-02-26T06:19:45;98356.16;;;-5.04;72.39
14790;BME280;7486;51.010;10.366;2023-02-26T06:22:12;98359.03;;;-5.46;73.74
14790;BME280;7486;51.010;10.366;2023-02-26T06:24:38;98359.16;;;-5.22;73.39
14790;BME280;7486;51.010;10.366;2023-02-26T06:27:05;98363.88;;;-5.16;73.28
14790;BME280;7486;51.010;10.366;2023-02-26T06:29:32;98366.94;;;-4.86;71.58
14790;BME280;7486;51.010;10.366;2023-02-26T06:31:59;98378.44;;;-5.03;72.29
14790;BME280;7486;51.010;10.366;2023-02-26T06:34:26;98372.84;;;-4.84;71.74
14790;BME280;7486;51.010;10.366;2023-02-26T06:36:52;98381.16;;;-4.55;70.49
14790;BME280;7486;51.010;10.366;2023-02-26T06:39:19;98388.91;;;-4.42;70.18
14790;BME280;7486;51.010;10.366;2023-02-26T06:41:46;98376.50;;;-4.50;69.75
14790;BME280;7486;51.010;10.366;2023-02-26T06:44:13;98400.59;;;-4.50;69.42
14790;BME280;7486;51.010;10.366;2023-02-26T06:46:40;98406.66;;;-4.87;70.92
14790;BME280;7486;51.010;10.366;2023-02-26T06:49:07;98412.41;;;-4.71;70.01
14790;BME280;7486;51.010;10.366;2023-02-26T06:51:34;98414.06;;;-4.82;70.25
14790;BME280;7486;51.010;10.366;2023-02-26T06:54:01;98421.53;;;-4.78;70.12
14790;BME280;7486;51.010;10.366;2023-02-26T06:56:28;98423.69;;;-4.72;70.03
14790;BME280;7486;51.010;10.366;2023-02-26T06:58:55;98432.63;;;-4.52;69.08
14790;BME280;7486;51.010;10.366;2023-02-26T07:01:22;98438.41;;;-4.49;68.92
14790;BME280;7486;51.010;10.366;2023-02-26T07:03:49;98435.56;;;-4.57;69.32
14790;BME280;7486;51.010;10.366;2023-02-26T07:06:16;98432.75;;;-4.54;68.68
14790;BME280;7486;51.010;10.366;2023-02-26T07:09:02;98458.47;;;-4.39;68.49
14790;BME280;7486;51.010;10.366;2023-02-26T07:11:29;98466.72;;;-4.34;68.19
14790;BME280;7486;51.010;10.366;2023-02-26T07:13:56;98464.69;;;-4.42;68.37
14790;BME280;7486;51.010;10.366;2023-02-26T07:16:22;98468.63;;;-4.49;68.29
14790;BME280;7486;51.010;10.366;2023-02-26T07:18:50;98446.94;;;-4.72;68.41
14790;BME280;7486;51.010;10.366;2023-02-26T07:21:16;98472.97;;;-4.62;68.82
14790;BME280;7486;51.010;10.366;2023-02-26T07:23:43;98477.34;;;-4.63;69.29
14790;BME280;7486;51.010;10.366;2023-02-26T07:26:10;98482.78;;;-4.29;67.78
14790;BME280;7486;51.010;10.366;2023-02-26T07:28:37;98485.34;;;-4.29;68.40
14790;BME280;7486;51.010;10.366;2023-02-26T07:31:03;98480.63;;;-4.61;68.30
14790;BME280;7486;51.010;10.366;2023-02-26T07:33:31;98292.53;;;-5.93;68.44
14790;BME280;7486;51.010;10.366;2023-02-26T07:35:58;98496.16;;;-4.73;68.93
14790;BME280;7486;51.010;10.366;2023-02-26T07:38:24;98496.34;;;-4.64;69.06
14790;BME280;7486;51.010;10.366;2023-02-26T07:40:54;98486.63;;;-4.60;69.08
14790;BME280;7486;51.010;10.366;2023-02-26T07:43:22;98486.81;;;-4.76;69.35
14790;BME280;7486;51.010;10.366;2023-02-26T07:45:50;98532.31;;;-4.61;69.69
14790;BME280;7486;51.010;10.366;2023-02-26T07:48:17;98508.75;;;-4.69;69.26
14790;BME280;7486;51.010;10.366;2023-02-26T07:50:44;98513.59;;;-4.52;68.14
14790;BME280;7486;51.010;10.366;2023-02-26T07:53:11;98517.34;;;-4.43;69.05
14790;BME280;7486;51.010;10.366;2023-02-26T07:55:38;98510.88;;;-4.12;68.97
14790;BME280;7486;51.010;10.366;2023-02-26T07:58:05;98508.50;;;-4.15;68.98
14790;BME280;7486;51.010;10.366;2023-02-26T08:00:31;98485.19;;;-4.77;69.23
14790;BME280;7486;51.010;10.366;2023-02-26T08:02:58;98527.84;;;-4.96;69.64
14790;BME280;7486;51.010;10.366;2023-02-26T08:05:29;98498.41;;;-4.69;70.09
14790;BME280;7486;51.010;10.366;2023-02-26T08:07:56;98526.00;;;-4.31;68.95
14790;BME280;7486;51.010;10.366;2023-02-26T08:10:23;98509.00;;;-4.10;68.13
14790;BME280;7486;51.010;10.366;2023-02-26T08:12:49;98534.53;;;-3.69;67.12
14790;BME280;7486;51.010;10.366;2023-02-26T08:15:16;98538.47;;;-3.64;66.40
14790;BME280;7486;51.010;10.366;2023-02-26T08:17:43;98527.88;;;-4.33;67.84
14790;BME280;7486;51.010;10.366;2023-02-26T08:20:10;98514.53;;;-4.40;66.68
14790;BME280;7486;51.010;10.366;2023-02-26T08:22:37;98543.41;;;-3.97;67.59
14790;BME280;7486;51.010;10.366;2023-02-26T08:25:04;98555.06;;;-4.40;69.16
14790;BME280;7486;51.010;10.366;2023-02-26T08:27:31;98508.22;;;-4.49;67.26
14790;BME280;7486;51.010;10.366;2023-02-26T08:29:58;98547.50;;;-4.31;68.92
14790;BME280;7486;51.010;10.366;2023-02-26T08:32:24;98549.47;;;-4.09;68.00
14790;BME280;7486;51.010;10.366;2023-02-26T08:34:51;98548.63;;;-4.10;66.91
14790;BME280;7486;51.010;10.366;2023-02-26T08:37:18;98548.63;;;-4.10;67.45
14790;BME280;7486;51.010;10.366;2023-02-26T08:39:45;98560.72;;;-4.10;67.38
14790;BME280;7486;51.010;10.366;2023-02-26T08:42:11;98552.38;;;-4.26;68.14
14790;BME280;7486;51.010;10.366;2023-02-26T08:44:38;98570.47;;;-4.26;68.06
14790;BME280;7486;51.010;10.366;2023-02-26T08:47:05;98573.91;;;-4.26;69.45
14790;BME280;7486;51.010;10.366;2023-02-26T08:49:32;98509.16;;;-4.75;69.69
14790;BME280;7486;51.010;10.366;2023-02-26T08:51:59;98556.81;;;-4.79;70.62
14790;BME280;7486;51.010;10.366;2023-02-26T08:54:26;98579.47;;;-4.57;69.71
14790;BME280;7486;51.010;10.366;2023-02-26T08:56:52;98584.66;;;-4.19;69.52
14790;BME280;7486;51.010;10.366;2023-02-26T08:59:19;98589.59;;;-3.91;68.47
14790;BME280;7486;51.010;10.366;2023-02-26T09:01:46;98594.16;;;-4.07;70.00
14790;BME280;7486;51.010;10.366;2023-02-26T09:04:13;98580.66;;;-3.87;70.00
14790;BME280;7486;51.010;10.366;2023-02-26T09:06:40;98601.47;;;-3.39;69.07
14790;BME280;7486;51.010;10.366;2023-02-26T09:09:06;98521.38;;;-3.66;67.24
14790;BME280;7486;51.010;10.366;2023-02-26T09:11:33;98619.94;;;-3.20;66.86
14790;BME280;7486;51.010;10.366;2023-02-26T09:14:00;98609.66;;;-3.46;68.39
14790;BME280;7486;51.010;10.366;2023-02-26T09:16:27;98621.53;;;-3.30;68.04
14790;BME280;7486;51.010;10.366;2023-02-26T09:18:55;98632.50;;;-3.27;69.21
14790;BME280;7486;51.010;10.366;2023-02-26T09:21:22;98615.66;;;-3.09;67.34
14790;BME280;7486;51.010;10.366;2023-02-26T09:24:15;98617.88;;;-3.04;67.56
14790;BME280;7486;51.010;10.366;2023-02-26T09:26:42;98635.94;;;-3.03;66.69
14790;BME280;7486;51.010;10.366;2023-02-26T09:29:08;98656.03;;;-3.06;66.50
14790;BME280;7486;51.010;10.366;2023-02-26T09:31:36;98654.38;;;-3.07;66.78
14790;BME280;7486;51.010;10.366;2023-02-26T09:34:03;98652.69;;;-2.96;67.47
14790;BME280;7486;51.010;10.366;2023-02-26T09:36:29;98651.53;;;-3.15;67.26
14790;BME280;7486;51.010;10.366;2023-02-26T09:38:56;98660.47;;;-3.32;66.93
14790;BME280;7486;51.010;10.366;2023-02-26T09:41:27;98670.81;;;-3.19;68.00
14790;BME280;7486;51.010;10.366;2023-02-26T09:44:24;98667.19;;;-3.17;68.08
14790;BME280;7486;51.010;10.366;2023-02-26T09:52:07;98685.09;;;-3.14;65.73
14790;BME280;7486;51.010;10.366;2023-02-26T09:54:45;98678.16;;;-3.62;67.29
14790;BME280;7486;51.010;10.366;2023-02-26T09:57:20;98680.66;;;-3.61;66.82
14790;BME280;7486;51.010;10.366;2023-02-26T09:59:49;98691.22;;;-3.64;68.34
14790;BME280;7486;51.010;10.366;2023-02-26T10:02:39;98691.09;;;-3.50;67.01
14790;BME280;7486;51.010;10.366;2023-02-26T10:05:18;98692.53;;;-3.58;67.48
14790;BME280;7486;51.010;10.366;2023-02-26T10:10:23;98677.63;;;-3.55;66.39
14790;BME280;7486;51.010;10.366;2023-02-26T10:12:53;98700.75;;;-3.15;67.09
14790;BME280;7486;51.010;10.366;2023-02-26T10:15:21;98696.91;;;-3.10;66.02
14790;BME280;7486;51.010;10.366;2023-02-26T10:23:11;98716.03;;;-3.00;65.71
14790;BME280;7486;51.010;10.366;2023-02-26T10:26:18;98710.72;;;-2.85;64.60
14790;BME280;7486;51.010;10.366;2023-02-26T10:28:50;98713.88;;;-3.06;64.85
14790;BME280;7486;51.010;10.366;2023-02-26T10:34:33;98715.50;;;-2.45;62.16
14790;BME280;7486;51.010;10.366;2023-02-26T10:37:48;98718.34;;;-2.60;64.23
14790;BME280;7486;51.010;10.366;2023-02-26T10:40:22;98719.91;;;-2.34;65.79
14790;BME280;7486;51.010;10.366;2023-02-26T10:43:19;98726.41;;;-2.28;63.93
14790;BME280;7486;51.010;10.366;2023-02-26T10:49:27;98723.09;;;-2.30;65.89
14790;BME280;7486;51.010;10.366;2023-02-26T10:51:57;98676.22;;;-2.51;64.24
14790;BME280;7486;51.010;10.366;2023-02-26T10:54:32;98730.69;;;-2.05;65.19
14790;BME280;7486;51.010;10.366;2023-02-26T10:56:59;98726.63;;;-2.31;64.09
14790;BME280;7486;51.010;10.366;2023-02-26T10:59:25;98712.34;;;-2.37;63.40
14790;BME280;7486;51.010;10.366;2023-02-26T11:01:53;98734.34;;;-2.08;62.62
14790;BME280;7486;51.010;10.366;2023-02-26T11:04:22;98738.94;;;-2.46;62.31
14790;BME280;7486;51.010;10.366;2023-02-26T11:07:01;98735.78;;;-2.38;62.45
14790;BME280;7486;51.010;10.366;2023-02-26T11:09:37;98742.72;;;-2.50;61.35
14790;BME280;7486;51.010;10.366;2023-02-26T11:14:37;98748.22;;;-2.55;65.49
14790;BME280;7486;51.010;10.366;2023-02-26T11:17:13;98724.59;;;-2.63;61.65
14790;BME280;7486;51.010;10.366;2023-02-26T11:19:58;98745.34;;;-2.39;61.98
14790;BME280;7486;51.010;10.366;2023-02-26T11:22:28;98736.13;;;-2.08;60.74
14790;BME280;7486;51.010;10.366;2023-02-26T11:24:57;98734.28;;;-1.84;61.21
14790;BME280;7486;51.010;10.366;2023-02-26T11:27:29;98741.25;;;-1.84;61.77
14790;BME280;7486;51.010;10.366;2023-02-26T11:29:59;98730.94;;;-2.19;60.11
14790;BME280;7486;51.010;10.366;2023-02-26T11:32:34;98743.94;;;-1.97;60.54
14790;BME280;7486;51.010;10.366;2023-02-26T11:35:02;98691.13;;;-2.31;59.64
14790;BME280;7486;51.010;10.366;2023-02-26T11:37:38;98718.91;;;-1.98;57.21
14790;BME280;7486;51.010;10.366;2023-02-26T11:43:05;98743.28;;;-1.77;58.34
14790;BME280;7486;51.010;10.366;2023-02-26T11:45:38;98737.06;;;-1.52;58.52
14790;BME280;7486;51.010;10.366;2023-02-26T11:48:22;98681.19;;;-1.80;59.48
14790;BME280;7486;51.010;10.366;2023-02-26T11:51:03;98713.69;;;-1.52;55.76
14790;BME280;7486;51.010;10.366;2023-02-26T11:53:36;98681.31;;;-1.70;56.29
14790;BME280;7486;51.010;10.366;2023-02-26T11:56:37;98739.44;;;-1.27;57.12
14790;BME280;7486;51.010;10.366;2023-02-26T11:59:30;98743.09;;;-1.52;56.78
14790;BME280;7486;51.010;10.366;2023-02-26T12:02:10;98740.72;;;-1.55;57.04
14790;BME280;7486;51.010;10.366;2023-02-26T12:04:41;98737.88;;;-1.52;59.30
14790;BME280;7486;51.010;10.366;2023-02-26T12:07:22;98729.97;;;-1.50;58.45
14790;BME280;7486;51.010;10.366;2023-02-26T12:09:52;98734.69;;;-1.55;58.83
14790;BME280;7486;51.010;10.366;2023-02-26T12:12:54;98733.16;;;-1.69;56.61
14790;BME280;7486;51.010;10.366;2023-02-26T12:15:38;98740.09;;;-1.80;57.42
14790;BME280;7486;51.010;10.366;2023-02-26T12:18:31;98726.31;;;-2.16;59.01
14790;BME280;7486;51.010;10.366;2023-02-26T12:21:29;98732.66;;;-1.74;57.44
14790;BME280;7486;51.010;10.366;2023-02-26T12:24:16;98748.69;;;-1.91;57.61
14790;BME280;7486;51.010;10.366;2023-02-26T12:41:58;98761.53;;;-2.01;57.27
14790;BME280;7486;51.010;10.366;2023-02-26T12:50:37;98711.53;;;-1.69;58.64
14790;BME280;7486;51.010;10.366;2023-02-26T13:01:51;98762.72;;;-2.28;56.44
14790;BME280;7486;51.010;10.366;2023-02-26T13:05:17;98765.38;;;-2.17;54.96
14790;BME280;7486;51.010;10.366;2023-02-26T13:08:14;98759.44;;;-1.84;53.29
14790;BME280;7486;51.010;10.366;2023-02-26T13:22:23;98771.81;;;-1.99;56.26
14790;BME280;7486;51.010;10.366;2023-02-26T13:25:04;98782.19;;;-2.47;56.26
14790;BME280;7486;51.010;10.366;2023-02-26T13:27:37;98772.59;;;-2.10;57.07
14790;BME280;7486;51.010;10.366;2023-02-26T13:30:27;98784.19;;;-1.92;57.13
14790;BME280;7486;51.010;10.366;2023-02-26T13:33:10;98772.00;;;-2.13;56.11
14790;BME280;7486;51.010;10.366;2023-02-26T13:35:52;98771.28;;;-2.39;57.17
14790;BME280;7486;51.010;10.366;2023-02-26T13:38:43;98760.25;;;-2.30;56.52
14790;BME280;7486;51.010;10.366;2023-02-26T13:44:42;98772.13;;;-2.04;55.04
14790;BME280;7486;51.010;10.366;2023-02-26T13:59:27;98773.75;;;-1.79;55.03
14790;BME280;7486;51.010;10.366;2023-02-26T14:04:58;98781.88;;;-1.83;51.72
14790;BME280;7486;51.010;10.366;2023-02-26T14:08:08;98767.28;;;-2.08;51.50
14790;BME280;7486;51.010;10.366;2023-02-26T14:11:02;98778.75;;;-2.00;51.60
14790;BME280;7486;51.010;10.366;2023-02-26T14:16:40;98786.69;;;-1.90;54.14
14790;BME280;7486;51.010;10.366;2023-02-26T14:24:36;98791.28;;;-1.94;52.66
14790;BME280;7486;51.010;10.366;2023-02-26T14:30:03;98793.28;;;-1.97;52.75
14790;BME280;7486;51.010;10.366;2023-02-26T14:32:37;98802.63;;;-2.18;51.53
14790;BME280;7486;51.010;10.366;2023-02-26T14:35:34;98797.59;;;-2.32;52.25
14790;BME280;7486;51.010;10.366;2023-02-26T14:41:37;98794.34;;;-2.23;56.16
14790;BME280;7486;51.010;10.366;2023-02-26T14:44:36;98797.47;;;-2.07;55.17
14790;BME280;7486;51.010;10.366;2023-02-26T14:47:05;98798.56;;;-1.99;52.39
14790;BME280;7486;51.010;10.366;2023-02-26T14:49:44;98788.44;;;-2.25;53.71
14790;BME280;7486;51.010;10.366;2023-02-26T14:57:55;98802.03;;;-2.46;53.91
14790;BME280;7486;51.010;10.366;2023-02-26T15:06:09;98811.56;;;-2.22;53.15
14790;BME280;7486;51.010;10.366;2023-02-26T15:09:05;98803.78;;;-2.22;53.64
14790;BME280;7486;51.010;10.366;2023-02-26T15:17:25;98792.91;;;-2.04;51.99
14790;BME280;7486;51.010;10.366;2023-02-26T15:20:28;98789.88;;;-2.21;53.29
14790;BME280;7486;51.010;10.366;2023-02-26T15:25:51;98801.19;;;-2.22;52.15
14790;BME280;7486;51.010;10.366;2023-02-26T15:30:50;98804.78;;;-2.36;51.73
14790;BME280;7486;51.010;10.366;2023-02-26T15:33:18;98804.47;;;-2.31;52.65
14790;BME280;7486;51.010;10.366;2023-02-26T15:35:50;98798.06;;;-2.38;53.13
14790;BME280;7486;51.010;10.366;2023-02-26T15:38:18;98803.31;;;-2.51;52.26
14790;BME280;7486;51.010;10.366;2023-02-26T15:40:46;98802.03;;;-2.46;53.74
14790;BME280;7486;51.010;10.366;2023-02-26T15:43:17;98782.22;;;-2.83;53.95
14790;BME280;7486;51.010;10.366;2023-02-26T15:45:47;98805.06;;;-2.88;53.31
14790;BME280;7486;51.010;10.366;2023-02-26T15:48:34;98811.16;;;-2.76;53.35
14790;BME280;7486;51.010;10.366;2023-02-26T15:51:04;98818.06;;;-2.64;53.03
14790;BME280;7486;51.010;10.366;2023-02-26T15:53:36;98816.13;;;-2.50;52.71
14790;BME280;7486;51.010;10.366;2023-02-26T15:56:09;98833.31;;;-2.36;52.42
14790;BME280;7486;51.010;10.366;2023-02-26T15:58:43;98823.59;;;-2.45;52.93
14790;BME280;7486;51.010;10.366;2023-02-26T16:01:19;98835.75;;;-2.22;53.38
14790;BME280;7486;51.010;10.366;2023-02-26T16:03:49;98824.06;;;-2.27;52.79
14790;BME280;7486;51.010;10.366;2023-02-26T16:06:27;98833.22;;;-2.34;52.09
14790;BME280;7486;51.010;10.366;2023-02-26T16:08:55;98836.88;;;-2.50;53.05
14790;BME280;7486;51.010;10.366;2023-02-26T16:11:22;98842.84;;;-2.60;53.40
14790;BME280;7486;51.010;10.366;2023-02-26T16:13:51;98841.66;;;-2.43;53.04
14790;BME280;7486;51.010;10.366;2023-02-26T16:16:28;98846.03;;;-2.44;52.33